Time;durP1;ratioP1;P1;durP2;ratioP2;P2;SDS_P1;SDS_P2;PMS_P1;PMS_P2;Temp;Humidity;BMP_temperature;BMP_pressure;BME280_temperature;BME280_humidity;BME280_pressure;Samples;Min_cycle;Max_cycle;Signal;HPM_P1;HPM_P2
2021/01/01 00:00:27;;;;;;;223.93;167.40;;;3.10;99.90;;;;;;5044742;28;20208;-92
2021/01/01 00:02:53;;;;;;;203.57;151.43;;;3.00;99.90;;;;;;5040393;28;20276;-93
2021/01/01 00:05:19;;;;;;;149.27;106.93;;;3.00;99.90;;;;;;5026690;28;20186;-91
2021/01/01 00:07:46;;;;;;;121.95;85.97;;;3.00;99.90;;;;;;5023270;28;20184;-93
2021/01/01 00:10:13;;;;;;;119.88;81.55;;;3.10;99.90;;;;;;5034758;28;20194;-93
2021/01/01 00:12:39;;;;;;;136.75;92.50;;;3.10;99.90;;;;;;5020000;28;20197;-93
2021/01/01 00:15:08;;;;;;;144.48;99.85;;;3.10;99.90;;;;;;5028012;28;20197;-93
2021/01/01 00:17:34;;;;;;;139.68;95.50;;;3.10;99.90;;;;;;5021502;28;20216;-92
2021/01/01 00:20:00;;;;;;;138.73;99.13;;;3.10;99.90;;;;;;5020056;28;20185;-93
2021/01/01 00:22:27;;;;;;;152.13;96.00;;;3.10;99.90;;;;;;5023508;28;20214;-93
2021/01/01 00:24:53;;;;;;;138.70;96.47;;;3.10;99.90;;;;;;5028073;28;20208;-92
2021/01/01 00:27:19;;;;;;;153.18;105.30;;;3.10;99.90;;;;;;5032510;28;20275;-92
2021/01/01 00:29:46;;;;;;;151.40;102.82;;;3.10;99.90;;;;;;5039863;28;20203;-92
2021/01/01 00:32:13;;;;;;;144.13;98.65;;;3.00;99.90;;;;;;5052671;28;20274;-92
2021/01/01 00:34:39;;;;;;;157.00;114.28;;;3.10;99.90;;;;;;5020684;28;20243;-93
2021/01/01 00:37:06;;;;;;;159.50;106.65;;;3.00;99.90;;;;;;5055863;28;20223;-92
2021/01/01 00:39:32;;;;;;;146.30;103.18;;;3.00;99.90;;;;;;5038477;28;20227;-93
2021/01/01 00:41:58;;;;;;;154.73;101.15;;;3.00;99.90;;;;;;5057792;28;20241;-93
2021/01/01 00:44:25;;;;;;;143.50;98.60;;;3.00;99.90;;;;;;5021218;28;20289;-93
2021/01/01 00:46:51;;;;;;;159.40;106.03;;;3.00;99.90;;;;;;5053680;28;20582;-92
2021/01/01 00:49:19;;;;;;;150.77;103.50;;;3.00;99.90;;;;;;5046520;28;20196;-93
2021/01/01 00:51:46;;;;;;;152.55;101.80;;;3.00;99.90;;;;;;5037042;28;20185;-92
2021/01/01 00:54:13;;;;;;;149.70;100.35;;;3.00;99.90;;;;;;5019960;28;20192;-92
2021/01/01 00:56:39;;;;;;;156.27;101.03;;;3.00;99.90;;;;;;5050448;28;20247;-92
2021/01/01 00:59:06;;;;;;;132.80;88.38;;;2.90;99.90;;;;;;5019312;28;20265;-92
2021/01/01 01:01:32;;;;;;;143.90;98.90;;;3.00;99.90;;;;;;5031544;28;20200;-93
2021/01/01 01:03:59;;;;;;;139.13;90.63;;;3.00;99.90;;;;;;5017892;28;20204;-92
2021/01/01 01:06:27;;;;;;;139.88;89.85;;;3.00;99.90;;;;;;5041635;28;20187;-92
2021/01/01 01:08:54;;;;;;;151.75;93.10;;;3.00;99.90;;;;;;5022526;28;20193;-91
2021/01/01 01:11:22;;;;;;;159.60;109.32;;;3.00;99.90;;;;;;5028972;28;20192;-92
2021/01/01 01:13:49;;;;;;;166.07;104.72;;;3.00;99.90;;;;;;5036117;28;20637;-92
2021/01/01 01:16:20;;;;;;;144.55;95.30;;;3.00;99.90;;;;;;5046506;28;20602;-91
2021/01/01 01:18:47;;;;;;;132.88;88.32;;;2.90;99.90;;;;;;5044663;28;20244;-92
2021/01/01 01:21:13;;;;;;;139.05;88.28;;;2.90;99.90;;;;;;5046240;28;20203;-93
2021/01/01 01:23:40;;;;;;;137.48;90.15;;;2.90;99.90;;;;;;5037022;28;20198;-92
2021/01/01 01:26:06;;;;;;;133.02;82.28;;;2.90;99.90;;;;;;5037251;28;20701;-91
2021/01/01 01:28:33;;;;;;;121.63;76.90;;;2.90;99.90;;;;;;5041344;28;20198;-91
2021/01/01 01:31:09;;;;;;;114.00;73.18;;;2.90;99.90;;;;;;5032907;28;20196;-92
2021/01/01 01:33:36;;;;;;;100.30;65.45;;;2.80;99.90;;;;;;5019942;28;20203;-92
2021/01/01 01:36:02;;;;;;;99.78;63.40;;;2.80;99.90;;;;;;5021139;28;20191;-93
2021/01/01 01:38:29;;;;;;;98.63;61.75;;;2.80;99.90;;;;;;5037239;28;20231;-91
2021/01/01 01:40:57;;;;;;;86.07;54.70;;;2.80;99.90;;;;;;5036284;28;20226;-92
2021/01/01 01:43:25;;;;;;;98.88;57.80;;;2.80;99.90;;;;;;5038489;28;20278;-91
2021/01/01 01:45:52;;;;;;;96.18;56.22;;;2.80;99.90;;;;;;5057494;28;20203;-91
2021/01/01 01:48:24;;;;;;;85.97;54.53;;;2.80;99.90;;;;;;5071778;28;20202;-93
2021/01/01 01:50:50;;;;;;;82.10;51.92;;;2.70;99.90;;;;;;5078244;28;20235;-94
2021/01/01 01:53:17;;;;;;;89.32;57.45;;;2.70;99.90;;;;;;5038152;28;20172;-92
2021/01/01 01:55:44;;;;;;;83.32;55.17;;;2.70;99.90;;;;;;5019331;28;20219;-92
2021/01/01 01:58:11;;;;;;;96.53;60.63;;;2.70;99.90;;;;;;5018318;28;20220;-92
2021/01/01 02:03:19;;;;;;;86.40;56.20;;;2.70;99.90;;;;;;5046360;28;20192;-92
2021/01/01 02:05:45;;;;;;;91.93;59.13;;;2.70;99.90;;;;;;5060719;28;20192;-92
2021/01/01 02:08:13;;;;;;;84.10;56.25;;;2.70;99.90;;;;;;5066010;28;20201;-93
2021/01/01 02:10:40;;;;;;;89.20;55.25;;;2.70;99.90;;;;;;5052324;28;20188;-92
2021/01/01 02:13:07;;;;;;;83.38;54.80;;;2.70;99.90;;;;;;5038620;28;20192;-92
2021/01/01 02:15:34;;;;;;;77.95;53.40;;;2.70;99.90;;;;;;5027771;28;20193;-93
2021/01/01 02:18:01;;;;;;;83.45;54.72;;;2.70;99.90;;;;;;5019342;28;20225;-93
2021/01/01 02:20:27;;;;;;;84.00;52.08;;;2.70;99.90;;;;;;5054335;28;20191;-93
2021/01/01 02:22:54;;;;;;;81.63;52.28;;;2.70;99.90;;;;;;5028646;28;20195;-93
2021/01/01 02:25:21;;;;;;;73.10;44.95;;;2.70;99.90;;;;;;5030650;28;20203;-93
2021/01/01 02:27:47;;;;;;;72.35;50.00;;;2.70;99.90;;;;;;5020510;28;20188;-91
2021/01/01 02:30:15;;;;;;;75.18;46.60;;;2.60;99.90;;;;;;5050617;28;20192;-92
2021/01/01 02:32:41;;;;;;;75.53;46.97;;;2.60;99.90;;;;;;5059181;28;20195;-91
2021/01/01 02:35:09;;;;;;;70.20;46.70;;;2.60;99.90;;;;;;5048024;28;20202;-94
2021/01/01 02:37:36;;;;;;;81.45;51.50;;;2.50;99.90;;;;;;5041797;28;20215;-91
2021/01/01 02:40:04;;;;;;;81.93;51.33;;;2.50;99.90;;;;;;5036135;28;20223;-94
2021/01/01 02:42:30;;;;;;;76.13;48.15;;;2.50;99.90;;;;;;5036716;28;20192;-93
2021/01/01 02:44:56;;;;;;;71.88;49.15;;;2.50;99.90;;;;;;5025303;28;20192;-92
2021/01/01 02:47:23;;;;;;;76.10;49.45;;;2.40;99.90;;;;;;5026587;28;20195;-92
2021/01/01 02:49:49;;;;;;;81.65;51.15;;;2.50;99.90;;;;;;5027396;28;20196;-92
2021/01/01 02:52:15;;;;;;;81.60;50.67;;;2.50;99.90;;;;;;5030550;28;20190;-92
2021/01/01 02:54:42;;;;;;;84.32;55.47;;;2.40;99.90;;;;;;5041655;28;20200;-93
2021/01/01 02:57:09;;;;;;;80.38;54.20;;;2.40;99.90;;;;;;5031142;28;20220;-94
2021/01/01 02:59:35;;;;;;;86.03;59.10;;;2.50;99.90;;;;;;5021641;28;20204;-93
2021/01/01 03:02:02;;;;;;;79.22;53.22;;;2.40;99.90;;;;;;5046735;28;20275;-93
2021/01/01 03:04:28;;;;;;;79.30;56.08;;;2.50;99.90;;;;;;5023493;28;20251;-94
2021/01/01 03:06:54;;;;;;;81.82;54.08;;;2.50;99.90;;;;;;5043702;28;20678;-94
2021/01/01 03:09:20;;;;;;;85.78;57.40;;;2.50;99.90;;;;;;5039398;28;20196;-93
2021/01/01 03:11:47;;;;;;;93.65;55.33;;;2.50;99.90;;;;;;5059694;28;20191;-93
2021/01/01 03:14:14;;;;;;;79.05;50.95;;;2.50;99.90;;;;;;5041542;28;20215;-93
2021/01/01 03:16:40;;;;;;;78.50;53.50;;;2.60;99.90;;;;;;5053290;28;20202;-93
2021/01/01 03:19:06;;;;;;;75.50;46.63;;;2.60;99.90;;;;;;5018858;28;20274;-93
2021/01/01 03:21:33;;;;;;;72.75;47.78;;;2.60;99.90;;;;;;5047518;28;20188;-92
2021/01/01 03:23:59;;;;;;;84.43;52.28;;;2.60;99.90;;;;;;5020099;28;20243;-93
2021/01/01 03:26:25;;;;;;;65.28;46.90;;;2.60;99.90;;;;;;5042063;28;20192;-92
2021/01/01 03:28:52;;;;;;;74.03;48.25;;;2.60;99.90;;;;;;5041221;28;20252;-93
2021/01/01 03:31:19;;;;;;;76.50;51.80;;;2.70;99.90;;;;;;5042529;28;20646;-93
2021/01/01 03:33:45;;;;;;;88.45;53.20;;;2.70;99.90;;;;;;5034535;28;20199;-92
2021/01/01 03:36:12;;;;;;;78.15;53.13;;;2.70;99.90;;;;;;5040029;28;20245;-93
2021/01/01 03:38:38;;;;;;;72.13;48.65;;;2.70;99.90;;;;;;5028603;28;20212;-93
2021/01/01 03:41:04;;;;;;;73.93;48.28;;;2.60;99.90;;;;;;5035017;28;20188;-93
2021/01/01 03:43:31;;;;;;;75.40;46.80;;;2.60;99.90;;;;;;5036685;28;20201;-92
2021/01/01 03:45:57;;;;;;;71.07;47.20;;;2.60;99.90;;;;;;5034894;28;20187;-93
2021/01/01 03:48:24;;;;;;;73.65;47.28;;;2.60;99.90;;;;;;5030222;28;20188;-93
2021/01/01 03:50:51;;;;;;;72.45;43.35;;;2.70;99.90;;;;;;5039558;28;20207;-93
2021/01/01 03:53:17;;;;;;;67.53;45.50;;;2.60;99.90;;;;;;5042421;28;20594;-94
2021/01/01 03:55:44;;;;;;;74.20;49.35;;;2.60;99.90;;;;;;5050596;28;20192;-92
2021/01/01 03:58:10;;;;;;;66.22;47.40;;;2.60;99.90;;;;;;5042718;28;20244;-93
2021/01/01 04:00:36;;;;;;;66.93;46.53;;;2.60;99.90;;;;;;5040068;28;20200;-94
2021/01/01 04:03:03;;;;;;;73.53;45.75;;;2.60;99.90;;;;;;5038956;28;20543;-93
2021/01/01 04:05:30;;;;;;;79.70;48.72;;;2.50;99.90;;;;;;5054187;28;20199;-93
2021/01/01 04:07:56;;;;;;;70.25;45.17;;;2.60;99.90;;;;;;5037843;28;20196;-93
2021/01/01 04:10:22;;;;;;;62.60;43.83;;;2.60;99.90;;;;;;5054057;28;20191;-93
2021/01/01 04:12:49;;;;;;;64.28;45.00;;;2.60;99.90;;;;;;5018209;28;20203;-93
2021/01/01 04:15:15;;;;;;;68.47;45.05;;;2.60;99.90;;;;;;5053816;28;20187;-94
2021/01/01 04:17:42;;;;;;;63.75;42.97;;;2.60;99.90;;;;;;5051920;28;20221;-93
2021/01/01 04:20:09;;;;;;;71.00;42.78;;;2.60;99.90;;;;;;5057126;28;20191;-93
2021/01/01 04:22:36;;;;;;;71.85;45.90;;;2.60;99.90;;;;;;5048923;28;20190;-94
2021/01/01 04:25:03;;;;;;;71.32;46.15;;;2.60;99.90;;;;;;5038072;28;20253;-94
2021/01/01 04:27:29;;;;;;;66.18;45.35;;;2.60;99.90;;;;;;5043431;28;20192;-95
2021/01/01 04:29:55;;;;;;;60.10;44.60;;;2.60;99.90;;;;;;5054478;28;20255;-92
2021/01/01 04:32:22;;;;;;;68.78;45.63;;;2.60;99.90;;;;;;5041357;28;20270;-93
2021/01/01 04:34:48;;;;;;;61.97;43.35;;;2.70;99.90;;;;;;5038911;28;20226;-93
2021/01/01 04:37:14;;;;;;;63.58;43.70;;;2.60;99.90;;;;;;5031088;28;20199;-93
2021/01/01 04:39:42;;;;;;;56.40;39.28;;;2.60;99.90;;;;;;5016965;28;20773;-93
2021/01/01 04:42:10;;;;;;;58.28;41.17;;;2.50;99.90;;;;;;5042319;28;20194;-94
2021/01/01 04:44:36;;;;;;;58.72;39.28;;;2.50;99.90;;;;;;5037488;28;20192;-93
2021/01/01 04:47:04;;;;;;;53.05;37.78;;;2.50;99.90;;;;;;5026607;28;20189;-94
2021/01/01 04:49:31;;;;;;;50.53;34.10;;;2.50;99.90;;;;;;5021791;28;20195;-92
2021/01/01 04:52:02;;;;;;;48.85;35.08;;;2.50;99.90;;;;;;5033448;28;20208;-93
2021/01/01 04:54:33;;;;;;;56.75;38.92;;;2.40;99.90;;;;;;5021659;28;20180;-93
2021/01/01 04:57:01;;;;;;;57.17;38.72;;;2.40;99.90;;;;;;5036613;28;20192;-92
2021/01/01 04:59:27;;;;;;;62.38;38.72;;;2.40;99.90;;;;;;5036700;28;20263;-93
2021/01/01 05:01:54;;;;;;;55.35;36.95;;;2.50;99.90;;;;;;5058394;28;20250;-94
2021/01/01 05:04:20;;;;;;;57.67;36.83;;;2.40;99.90;;;;;;5057293;28;20703;-93
2021/01/01 05:06:46;;;;;;;56.45;35.05;;;2.40;99.90;;;;;;5036626;28;20194;-93
2021/01/01 05:09:13;;;;;;;55.95;38.13;;;2.40;99.90;;;;;;5035378;28;20203;-93
2021/01/01 05:11:40;;;;;;;61.58;40.88;;;2.40;99.90;;;;;;5020967;28;20192;-93
2021/01/01 05:14:08;;;;;;;53.88;36.97;;;2.40;99.90;;;;;;5034326;28;20194;-93
2021/01/01 05:16:35;;;;;;;49.80;34.80;;;2.40;99.90;;;;;;5022832;28;20253;-95
2021/01/01 05:19:10;;;;;;;51.72;39.00;;;2.40;99.90;;;;;;5038926;28;20219;-94
2021/01/01 05:21:37;;;;;;;50.63;35.40;;;2.40;99.90;;;;;;5032641;28;20202;-93
2021/01/01 05:24:06;;;;;;;56.25;40.47;;;2.30;99.90;;;;;;5040700;28;20313;-93
2021/01/01 05:26:33;;;;;;;54.15;37.03;;;2.40;99.90;;;;;;5040140;28;20278;-93
2021/01/01 05:29:05;;;;;;;57.67;36.30;;;2.40;99.90;;;;;;5021807;28;20262;-93
2021/01/01 05:31:34;;;;;;;46.35;33.58;;;2.40;99.90;;;;;;5031480;28;20185;-94
2021/01/01 05:34:02;;;;;;;53.63;35.17;;;2.40;99.90;;;;;;5024060;28;20288;-94
2021/01/01 05:36:32;;;;;;;48.83;36.03;;;2.40;99.90;;;;;;5017331;28;20195;-93
2021/01/01 05:39:00;;;;;;;58.83;38.00;;;2.40;99.90;;;;;;5016479;28;20237;-93
2021/01/01 05:41:32;;;;;;;49.90;35.58;;;2.40;99.90;;;;;;5023672;28;20184;-93
2021/01/01 05:44:10;;;;;;;52.88;37.22;;;2.40;99.90;;;;;;5032606;28;20188;-94
2021/01/01 05:46:38;;;;;;;55.40;37.60;;;2.40;99.90;;;;;;5050639;28;20259;-95
2021/01/01 05:49:05;;;;;;;54.40;37.60;;;2.40;99.90;;;;;;5049831;28;20235;-93
2021/01/01 05:51:31;;;;;;;59.90;35.70;;;2.40;99.90;;;;;;5036137;28;20180;-93
2021/01/01 05:54:11;;;;;;;58.22;35.78;;;2.50;99.90;;;;;;5033085;28;20181;-94
2021/01/01 05:56:41;;;;;;;49.80;36.33;;;2.40;99.90;;;;;;5027409;28;20192;-94
2021/01/01 05:59:10;;;;;;;54.08;35.70;;;2.40;99.90;;;;;;5026405;28;20218;-91
2021/01/01 06:01:40;;;;;;;50.40;35.25;;;2.40;99.90;;;;;;5035339;28;20187;-92
2021/01/01 06:04:07;;;;;;;49.25;33.58;;;2.40;99.90;;;;;;5035522;28;20271;-92
2021/01/01 06:06:34;;;;;;;52.60;37.03;;;2.40;99.90;;;;;;5035949;28;20200;-91
2021/01/01 06:09:04;;;;;;;50.17;32.40;;;2.40;99.90;;;;;;5037304;28;20236;-93
2021/01/01 06:11:35;;;;;;;49.65;35.35;;;2.40;99.90;;;;;;5015621;28;20262;-92
2021/01/01 06:14:05;;;;;;;51.90;36.28;;;2.40;99.90;;;;;;5025858;28;20195;-91
2021/01/01 06:16:38;;;;;;;47.33;34.25;;;2.30;99.90;;;;;;5035074;28;20196;-92
2021/01/01 06:19:11;;;;;;;55.75;36.42;;;2.30;99.90;;;;;;5027698;28;20204;-91
2021/01/01 06:21:42;;;;;;;58.28;34.53;;;2.30;99.90;;;;;;5046929;28;20204;-92
2021/01/01 06:24:16;;;;;;;61.10;34.83;;;2.30;99.90;;;;;;5021889;28;20186;-91
2021/01/01 06:26:44;;;;;;;44.08;33.90;;;2.30;99.90;;;;;;5015246;28;20203;-92
2021/01/01 06:29:16;;;;;;;48.28;34.30;;;2.30;99.90;;;;;;5031885;28;20244;-91
2021/01/01 06:31:44;;;;;;;57.22;38.65;;;2.30;99.90;;;;;;5059753;28;20203;-92
2021/01/01 06:34:29;;;;;;;51.70;35.75;;;2.30;99.90;;;;;;5030756;28;20202;-91
2021/01/01 06:36:55;;;;;;;50.33;35.75;;;2.30;99.90;;;;;;5018582;28;20262;-91
2021/01/01 06:39:39;;;;;;;51.78;35.90;;;2.30;99.90;;;;;;5025236;28;20590;-91
2021/01/01 06:42:07;;;;;;;58.22;39.40;;;2.20;99.90;;;;;;5041511;28;20202;-91
2021/01/01 06:44:36;;;;;;;54.38;35.53;;;2.30;99.90;;;;;;5058577;28;20199;-91
2021/01/01 06:47:03;;;;;;;63.20;42.53;;;2.20;99.90;;;;;;5055931;28;20191;-92
2021/01/01 06:49:33;;;;;;;56.33;38.40;;;2.20;99.90;;;;;;5055790;28;20202;-91
2021/01/01 06:52:12;;;;;;;58.83;37.58;;;2.20;99.90;;;;;;5058325;28;20187;-92
2021/01/01 06:54:56;;;;;;;61.78;41.33;;;2.20;99.90;;;;;;5054386;28;20188;-91
2021/01/01 06:57:24;;;;;;;57.53;39.90;;;2.20;99.90;;;;;;5034667;28;20517;-92
2021/01/01 06:59:51;;;;;;;67.47;44.20;;;2.20;99.90;;;;;;5037880;28;20195;-92
2021/01/01 07:02:19;;;;;;;59.65;41.08;;;2.10;99.90;;;;;;5037710;28;20237;-93
2021/01/01 07:04:50;;;;;;;60.58;40.22;;;2.10;99.90;;;;;;5042387;28;20650;-92
2021/01/01 07:07:42;;;;;;;62.17;41.55;;;2.10;99.90;;;;;;5039005;28;20199;-90
2021/01/01 07:10:14;;;;;;;66.95;42.30;;;2.10;99.90;;;;;;5022404;28;20188;-92
2021/01/01 07:12:40;;;;;;;62.15;42.97;;;2.10;99.90;;;;;;5034248;28;20185;-91
2021/01/01 07:15:33;;;;;;;78.22;46.53;;;2.10;99.90;;;;;;5022723;28;20197;-91
2021/01/01 07:18:00;;;;;;;87.28;49.92;;;2.00;99.90;;;;;;5040061;28;20210;-92
2021/01/01 07:20:27;;;;;;;75.47;46.15;;;2.00;99.90;;;;;;5022959;28;20196;-91
2021/01/01 07:22:58;;;;;;;69.90;47.05;;;2.00;99.90;;;;;;5023374;28;20711;-92
2021/01/01 07:25:38;;;;;;;74.55;45.28;;;2.00;99.90;;;;;;5038140;28;20191;-91
2021/01/01 07:28:06;;;;;;;70.95;45.60;;;2.00;99.90;;;;;;5043699;28;20210;-92
2021/01/01 07:30:33;;;;;;;73.75;49.10;;;2.00;99.90;;;;;;5031845;28;20195;-92
2021/01/01 07:33:00;;;;;;;75.30;48.67;;;1.90;99.90;;;;;;5050603;28;20554;-92
2021/01/01 07:35:28;;;;;;;68.22;42.47;;;1.90;99.90;;;;;;5025787;28;20188;-92
2021/01/01 07:37:55;;;;;;;73.32;48.00;;;1.90;99.90;;;;;;5045801;28;20218;-91
2021/01/01 07:40:22;;;;;;;73.13;46.58;;;1.90;99.90;;;;;;5027108;28;20218;-92
2021/01/01 07:42:50;;;;;;;72.72;44.70;;;1.90;99.90;;;;;;5031864;28;20191;-92
2021/01/01 07:45:16;;;;;;;71.82;47.88;;;1.90;99.90;;;;;;5027717;28;20199;-92
2021/01/01 07:47:44;;;;;;;68.30;46.33;;;1.90;99.90;;;;;;5042368;28;20203;-91
2021/01/01 07:50:14;;;;;;;69.05;47.47;;;1.90;99.90;;;;;;5025570;28;20199;-92
2021/01/01 07:52:42;;;;;;;77.05;49.42;;;1.90;99.90;;;;;;5032844;28;20191;-92
2021/01/01 07:55:09;;;;;;;85.47;49.55;;;1.90;99.90;;;;;;5022015;28;20198;-89
2021/01/01 07:57:37;;;;;;;86.07;53.70;;;1.90;99.90;;;;;;5029318;28;20192;-89
2021/01/01 08:00:06;;;;;;;81.65;49.35;;;2.00;99.90;;;;;;5038091;28;20192;-89
2021/01/01 08:02:32;;;;;;;75.40;48.90;;;1.90;99.90;;;;;;5038777;28;20648;-88
2021/01/01 08:05:01;;;;;;;77.85;52.47;;;2.00;99.90;;;;;;5037579;28;20251;-90
2021/01/01 08:07:27;;;;;;;82.60;49.78;;;2.10;99.90;;;;;;5026006;28;20193;-91
2021/01/01 08:09:55;;;;;;;71.35;47.72;;;2.10;99.90;;;;;;5018353;28;20196;-90
2021/01/01 08:12:21;;;;;;;87.03;50.72;;;2.20;99.90;;;;;;5031538;28;20197;-90
2021/01/01 08:14:51;;;;;;;86.60;54.05;;;2.10;99.90;;;;;;5024000;28;20227;-90
2021/01/01 08:17:19;;;;;;;83.43;51.53;;;2.10;99.90;;;;;;5040082;28;20523;-90
2021/01/01 08:19:46;;;;;;;85.38;53.50;;;2.20;99.90;;;;;;5030026;28;20192;-90
2021/01/01 08:22:17;;;;;;;76.18;51.08;;;2.20;99.90;;;;;;5026523;28;20196;-90
2021/01/01 08:24:46;;;;;;;92.85;61.90;;;2.20;99.90;;;;;;5023439;28;20196;-90
2021/01/01 08:27:14;;;;;;;100.28;63.88;;;2.20;99.90;;;;;;5031882;28;20733;-90
2021/01/01 08:29:41;;;;;;;85.93;55.83;;;2.20;99.90;;;;;;5038482;28;20790;-90
2021/01/01 08:32:08;;;;;;;142.38;86.65;;;2.30;99.90;;;;;;5035702;28;20195;-90
2021/01/01 08:34:35;;;;;;;162.82;104.55;;;2.30;99.90;;;;;;5026954;28;20193;-90
2021/01/01 08:37:03;;;;;;;155.38;93.93;;;2.40;99.90;;;;;;5026428;28;20592;-90
2021/01/01 08:39:29;;;;;;;127.60;85.68;;;2.40;99.90;;;;;;5046152;28;20234;-93
2021/01/01 08:41:57;;;;;;;159.60;115.15;;;2.40;99.90;;;;;;5051156;28;20171;-92
2021/01/01 08:44:25;;;;;;;183.93;133.07;;;2.40;99.90;;;;;;5060038;28;20191;-93
2021/01/01 08:46:58;;;;;;;199.05;148.63;;;2.40;99.90;;;;;;5044224;28;20251;-91
2021/01/01 08:49:25;;;;;;;117.40;80.85;;;2.40;99.90;;;;;;5046565;28;20203;-92
2021/01/01 08:51:51;;;;;;;115.13;72.88;;;2.40;99.90;;;;;;5038674;28;20275;-93
2021/01/01 08:54:22;;;;;;;105.70;63.42;;;2.40;99.90;;;;;;5017876;28;20193;-93
2021/01/01 08:56:58;;;;;;;98.75;63.55;;;2.40;99.90;;;;;;5021072;28;20203;-92
2021/01/01 08:59:27;;;;;;;97.82;65.93;;;2.50;99.90;;;;;;5050225;28;20217;-91
2021/01/01 09:01:54;;;;;;;144.15;96.82;;;2.50;99.90;;;;;;5042272;28;20188;-93
2021/01/01 09:04:28;;;;;;;147.50;95.18;;;2.50;99.90;;;;;;5036353;28;20260;-93
2021/01/01 09:07:02;;;;;;;113.07;69.93;;;2.60;99.90;;;;;;5038507;28;20222;-93
2021/01/01 09:17:10;;;;;;;104.20;63.05;;;2.70;99.90;;;;;;5056540;28;20210;-94
2021/01/01 09:19:37;;;;;;;106.13;60.42;;;2.70;99.90;;;;;;5041382;28;20286;-94
2021/01/01 09:24:40;;;;;;;110.35;66.00;;;2.70;99.90;;;;;;5715789;23;20221;-92
2021/01/01 09:27:14;;;;;;;111.10;61.63;;;2.90;99.90;;;;;;5077982;28;20194;-94
2021/01/01 10:44:47;;;;;;;129.23;73.85;;;3.10;99.90;;;;;;1438265;22;20511;-92
2021/01/01 10:47:13;;;;;;;123.95;74.18;;;3.20;99.90;;;;;;5032685;28;20205;-93
2021/01/01 10:49:41;;;;;;;116.40;70.75;;;3.30;99.90;;;;;;5040110;28;20222;-94
2021/01/01 10:52:34;;;;;;;119.97;72.82;;;3.40;99.90;;;;;;5047493;28;20252;-96
2021/01/01 10:55:01;;;;;;;115.93;67.82;;;3.40;99.90;;;;;;5035469;28;20199;-95
2021/01/01 10:57:27;;;;;;;116.85;69.18;;;3.40;99.90;;;;;;5028714;28;20213;-94
2021/01/01 11:08:38;;;;;;;104.00;64.68;;;3.40;99.90;;;;;;5049231;28;20199;-95
2021/01/01 11:11:15;;;;;;;106.20;66.82;;;3.30;99.90;;;;;;5350677;23;20223;-95
2021/01/01 12:22:53;;;;;;;56.65;38.95;;;6.90;99.90;;;;;;5027440;28;20619;-90
2021/01/01 12:25:21;;;;;;;60.45;38.40;;;6.80;99.90;;;;;;5036854;28;20189;-90
2021/01/01 12:27:49;;;;;;;62.42;42.42;;;6.90;99.90;;;;;;5036506;28;20276;-91
2021/01/01 12:30:16;;;;;;;61.97;40.35;;;7.00;99.90;;;;;;5044416;28;20187;-90
2021/01/01 12:32:43;;;;;;;57.50;38.72;;;6.70;99.90;;;;;;5071683;28;20323;-91
2021/01/01 12:35:11;;;;;;;63.67;39.25;;;6.40;99.90;;;;;;5075256;28;20191;-90
2021/01/01 12:37:39;;;;;;;60.70;37.80;;;5.90;99.90;;;;;;5087367;28;20190;-90
2021/01/01 12:40:07;;;;;;;59.08;39.85;;;5.60;99.90;;;;;;5078153;28;20185;-89
2021/01/01 12:42:34;;;;;;;60.33;39.05;;;5.50;99.90;;;;;;5047649;28;20591;-91
2021/01/01 12:45:01;;;;;;;53.85;37.70;;;5.50;99.90;;;;;;5057077;28;20184;-91
2021/01/01 12:47:27;;;;;;;56.30;36.90;;;5.50;99.90;;;;;;5057816;28;20184;-90
2021/01/01 12:49:53;;;;;;;70.07;40.05;;;5.40;99.90;;;;;;5059443;28;20242;-90
2021/01/01 12:52:20;;;;;;;54.90;38.00;;;5.30;99.90;;;;;;5037240;28;20246;-90
2021/01/01 12:54:46;;;;;;;62.63;37.05;;;5.40;99.90;;;;;;5036863;28;20197;-91
2021/01/01 12:57:13;;;;;;;55.55;33.42;;;5.40;99.90;;;;;;5056497;28;20206;-91
2021/01/01 12:59:40;;;;;;;60.05;40.28;;;5.20;99.90;;;;;;5056875;28;20219;-90
2021/01/01 13:02:06;;;;;;;59.60;37.47;;;4.90;99.90;;;;;;5056465;28;20184;-90
2021/01/01 13:04:33;;;;;;;58.90;36.97;;;4.60;99.90;;;;;;5056562;28;20188;-90
2021/01/01 13:06:59;;;;;;;61.60;41.67;;;4.50;99.90;;;;;;5056287;28;20215;-90
2021/01/01 13:09:27;;;;;;;52.40;35.15;;;4.40;99.90;;;;;;5056427;28;20199;-90
2021/01/01 13:11:53;;;;;;;58.95;36.03;;;4.20;99.90;;;;;;5050452;28;20549;-89
2021/01/01 13:14:19;;;;;;;55.38;35.80;;;4.10;99.90;;;;;;5044527;28;20226;-89
2021/01/01 13:16:46;;;;;;;59.15;34.30;;;4.10;99.90;;;;;;5043266;28;20188;-90
2021/01/01 13:19:13;;;;;;;63.10;39.22;;;4.10;99.90;;;;;;5048173;28;20300;-90
2021/01/01 13:21:41;;;;;;;55.95;35.88;;;4.10;99.90;;;;;;5049259;28;20667;-91
2021/01/01 13:24:08;;;;;;;55.13;34.00;;;4.10;99.90;;;;;;5055118;28;20192;-90
2021/01/01 13:26:35;;;;;;;58.95;34.85;;;4.10;99.90;;;;;;5041414;28;20221;-90
2021/01/01 13:29:03;;;;;;;50.60;32.95;;;4.10;99.90;;;;;;5051217;28;20185;-89
2021/01/01 13:31:39;;;;;;;51.80;34.80;;;4.10;99.90;;;;;;5052033;28;20188;-92
2021/01/01 13:34:10;;;;;;;49.10;31.85;;;4.10;99.90;;;;;;5037245;28;20679;-90
2021/01/01 13:36:37;;;;;;;42.22;29.85;;;4.10;99.90;;;;;;5035512;28;20199;-91
2021/01/01 13:39:04;;;;;;;46.25;29.85;;;4.10;99.90;;;;;;5036213;28;20221;-91
2021/01/01 13:41:36;;;;;;;46.45;29.77;;;4.10;99.90;;;;;;5037395;28;20196;-93
2021/01/01 13:44:03;;;;;;;41.50;27.67;;;4.10;99.90;;;;;;5037284;28;20185;-92
2021/01/01 13:46:30;;;;;;;42.85;29.90;;;4.10;99.90;;;;;;5043136;28;20184;-93
2021/01/01 13:48:57;;;;;;;36.95;25.80;;;4.20;99.90;;;;;;5037071;28;20192;-92
2021/01/01 13:51:28;;;;;;;46.65;29.08;;;4.20;99.90;;;;;;5038224;28;20185;-93
2021/01/01 13:53:55;;;;;;;40.47;28.10;;;4.30;99.90;;;;;;5037725;28;20246;-92
2021/01/01 13:56:21;;;;;;;45.58;30.17;;;4.30;99.90;;;;;;5055670;28;20191;-91
2021/01/01 13:58:48;;;;;;;42.35;29.30;;;4.40;99.90;;;;;;5074877;28;20226;-90
2021/01/01 14:01:16;;;;;;;41.10;28.60;;;4.40;99.90;;;;;;5058184;28;20185;-92
2021/01/01 14:03:43;;;;;;;43.20;29.70;;;4.40;99.90;;;;;;5038476;28;20192;-90
2021/01/01 14:06:10;;;;;;;42.03;24.98;;;4.30;99.90;;;;;;5039218;28;20284;-91
2021/01/01 14:08:38;;;;;;;39.78;26.60;;;4.30;99.90;;;;;;5035405;28;20200;-91
2021/01/01 14:11:06;;;;;;;39.20;25.85;;;4.20;99.90;;;;;;5050915;28;20196;-90
2021/01/01 14:13:32;;;;;;;39.90;25.13;;;4.20;99.90;;;;;;5036118;28;20193;-91
2021/01/01 14:15:58;;;;;;;38.75;25.73;;;4.20;99.90;;;;;;5035324;28;20192;-90
2021/01/01 14:18:25;;;;;;;44.17;29.08;;;4.20;99.90;;;;;;5036112;28;20217;-91
2021/01/01 14:20:52;;;;;;;46.28;30.98;;;4.20;99.90;;;;;;5035687;28;20193;-91
2021/01/01 14:23:19;;;;;;;37.65;28.25;;;4.20;99.90;;;;;;5035400;28;20312;-90
2021/01/01 14:25:49;;;;;;;41.97;28.55;;;4.30;99.90;;;;;;5035806;28;20189;-91
2021/01/01 14:28:15;;;;;;;40.85;29.10;;;4.20;99.90;;;;;;5036715;28;20197;-91
2021/01/01 14:30:42;;;;;;;35.28;25.88;;;4.10;99.90;;;;;;5035557;28;20525;-91
2021/01/01 14:33:09;;;;;;;38.92;25.15;;;4.10;99.90;;;;;;5036411;28;20197;-91
2021/01/01 14:35:36;;;;;;;39.20;25.65;;;4.10;99.90;;;;;;5035730;28;20204;-91
2021/01/01 14:38:03;;;;;;;36.53;26.10;;;4.00;99.90;;;;;;5035699;28;20192;-90
2021/01/01 14:40:29;;;;;;;35.83;25.83;;;4.00;99.90;;;;;;5045592;28;20180;-91
2021/01/01 14:42:57;;;;;;;35.85;25.65;;;4.00;99.90;;;;;;5055461;28;20624;-91
2021/01/01 14:45:24;;;;;;;37.53;24.80;;;3.90;99.90;;;;;;5055333;28;20678;-90
2021/01/01 14:47:50;;;;;;;35.38;23.38;;;3.90;99.90;;;;;;5056035;28;20195;-91
2021/01/01 14:50:16;;;;;;;34.20;24.05;;;3.70;99.90;;;;;;5039197;28;20199;-91
2021/01/01 14:52:43;;;;;;;37.92;25.23;;;3.60;99.90;;;;;;5039571;28;20200;-91
2021/01/01 14:55:10;;;;;;;42.45;28.73;;;3.50;99.90;;;;;;5039744;28;20236;-93
2021/01/01 14:57:37;;;;;;;37.33;25.10;;;3.50;99.90;;;;;;5041117;28;20203;-92
2021/01/01 15:00:06;;;;;;;38.25;24.63;;;3.50;99.90;;;;;;5040074;28;20227;-92
2021/01/01 15:02:33;;;;;;;33.85;26.13;;;3.40;99.90;;;;;;5040005;28;20243;-92
2021/01/01 15:04:59;;;;;;;34.63;23.60;;;3.40;99.90;;;;;;5039787;28;20200;-92
2021/01/01 15:07:26;;;;;;;35.90;24.83;;;3.30;99.90;;;;;;5041309;28;20219;-94
2021/01/01 15:09:52;;;;;;;31.80;25.17;;;3.30;99.90;;;;;;5042483;28;20210;-93
2021/01/01 15:12:19;;;;;;;47.65;24.92;;;3.40;99.90;;;;;;5051508;28;20278;-93
2021/01/01 15:14:46;;;;;;;43.05;26.40;;;3.40;99.90;;;;;;5039179;28;20192;-93
2021/01/01 15:17:13;;;;;;;36.30;25.77;;;3.40;99.90;;;;;;5039323;28;20199;-93
2021/01/01 15:19:40;;;;;;;38.38;26.08;;;3.40;99.90;;;;;;5039104;28;20224;-93
2021/01/01 15:22:06;;;;;;;36.90;23.80;;;3.40;99.90;;;;;;5038818;28;20236;-94